sensor_id;sensor_type;location;lat;lon;timestamp;P1;durP1;ratioP1;P2;durP2;ratioP2
359;SDS011;168;48.872;9.226;2024-01-06T00:00:00;8.07;;;5.80;;
359;SDS011;168;48.872;9.226;2024-01-06T00:02:27;10.30;;;5.87;;
359;SDS011;168;48.872;9.226;2024-01-06T00:04:54;7.60;;;5.90;;
359;SDS011;168;48.872;9.226;2024-01-06T00:07:22;7.13;;;6.20;;
359;SDS011;168;48.872;9.226;2024-01-06T00:09:49;9.00;;;5.70;;
359;SDS011;168;48.872;9.226;2024-01-06T00:12:16;8.27;;;5.33;;
359;SDS011;168;48.872;9.226;2024-01-06T00:14:46;6.50;;;5.00;;
359;SDS011;168;48.872;9.226;2024-01-06T00:17:14;7.50;;;5.87;;
359;SDS011;168;48.872;9.226;2024-01-06T00:19:42;6.63;;;4.90;;
359;SDS011;168;48.872;9.226;2024-01-06T00:22:09;8.40;;;5.27;;
359;SDS011;168;48.872;9.226;2024-01-06T00:24:37;5.73;;;5.10;;
359;SDS011;168;48.872;9.226;2024-01-06T00:27:04;5.93;;;4.60;;
359;SDS011;168;48.872;9.226;2024-01-06T00:29:36;8.87;;;5.20;;
359;SDS011;168;48.872;9.226;2024-01-06T00:32:05;7.93;;;5.80;;
359;SDS011;168;48.872;9.226;2024-01-06T00:34:33;7.07;;;5.90;;
359;SDS011;168;48.872;9.226;2024-01-06T00:37:00;8.33;;;5.60;;
359;SDS011;168;48.872;9.226;2024-01-06T00:39:28;5.93;;;5.30;;
359;SDS011;168;48.872;9.226;2024-01-06T00:41:55;8.13;;;7.37;;
359;SDS011;168;48.872;9.226;2024-01-06T00:44:22;6.57;;;5.77;;
359;SDS011;168;48.872;9.226;2024-01-06T00:46:50;8.73;;;5.63;;
359;SDS011;168;48.872;9.226;2024-01-06T00:49:18;6.20;;;5.30;;
359;SDS011;168;48.872;9.226;2024-01-06T00:51:46;7.33;;;5.33;;
359;SDS011;168;48.872;9.226;2024-01-06T00:54:13;7.87;;;4.60;;
359;SDS011;168;48.872;9.226;2024-01-06T00:56:40;5.83;;;4.53;;
359;SDS011;168;48.872;9.226;2024-01-06T00:59:08;7.03;;;4.90;;
359;SDS011;168;48.872;9.226;2024-01-06T01:01:36;5.73;;;4.40;;
359;SDS011;168;48.872;9.226;2024-01-06T01:04:03;6.33;;;4.50;;
359;SDS011;168;48.872;9.226;2024-01-06T01:06:32;5.60;;;3.83;;
359;SDS011;168;48.872;9.226;2024-01-06T01:08:59;5.13;;;3.97;;
359;SDS011;168;48.872;9.226;2024-01-06T01:11:26;5.33;;;3.57;;
359;SDS011;168;48.872;9.226;2024-01-06T01:13:54;5.77;;;3.83;;
359;SDS011;168;48.872;9.226;2024-01-06T01:16:21;5.30;;;4.00;;
359;SDS011;168;48.872;9.226;2024-01-06T01:18:48;7.37;;;4.73;;
359;SDS011;168;48.872;9.226;2024-01-06T01:21:16;7.40;;;4.10;;
359;SDS011;168;48.872;9.226;2024-01-06T01:23:44;8.37;;;4.47;;
359;SDS011;168;48.872;9.226;2024-01-06T01:26:12;6.40;;;4.47;;
359;SDS011;168;48.872;9.226;2024-01-06T01:28:39;4.70;;;3.93;;
359;SDS011;168;48.872;9.226;2024-01-06T01:31:06;5.97;;;3.97;;
359;SDS011;168;48.872;9.226;2024-01-06T01:33:34;4.60;;;3.53;;
359;SDS011;168;48.872;9.226;2024-01-06T01:36:01;5.03;;;3.27;;
359;SDS011;168;48.872;9.226;2024-01-06T01:38:29;4.33;;;3.37;;
359;SDS011;168;48.872;9.226;2024-01-06T01:40:57;5.30;;;3.60;;
359;SDS011;168;48.872;9.226;2024-01-06T01:43:44;6.60;;;3.10;;
359;SDS011;168;48.872;9.226;2024-01-06T01:46:12;4.53;;;3.17;;
359;SDS011;168;48.872;9.226;2024-01-06T01:48:40;5.27;;;3.00;;
359;SDS011;168;48.872;9.226;2024-01-06T01:51:08;4.57;;;3.20;;
359;SDS011;168;48.872;9.226;2024-01-06T01:53:36;5.00;;;3.20;;
359;SDS011;168;48.872;9.226;2024-01-06T01:56:05;7.97;;;3.43;;
359;SDS011;168;48.872;9.226;2024-01-06T01:58:34;5.57;;;3.17;;
359;SDS011;168;48.872;9.226;2024-01-06T02:01:01;4.10;;;2.70;;
359;SDS011;168;48.872;9.226;2024-01-06T02:03:29;4.73;;;2.70;;
359;SDS011;168;48.872;9.226;2024-01-06T02:05:57;5.73;;;2.60;;
359;SDS011;168;48.872;9.226;2024-01-06T02:08:24;5.30;;;2.93;;
359;SDS011;168;48.872;9.226;2024-01-06T02:10:53;5.03;;;2.60;;
359;SDS011;168;48.872;9.226;2024-01-06T02:13:23;5.83;;;2.90;;
359;SDS011;168;48.872;9.226;2024-01-06T02:15:50;5.97;;;2.83;;
359;SDS011;168;48.872;9.226;2024-01-06T02:18:18;5.50;;;2.60;;
359;SDS011;168;48.872;9.226;2024-01-06T02:20:46;5.07;;;2.97;;
359;SDS011;168;48.872;9.226;2024-01-06T02:23:15;4.50;;;2.43;;
359;SDS011;168;48.872;9.226;2024-01-06T02:25:42;5.53;;;3.10;;
359;SDS011;168;48.872;9.226;2024-01-06T02:28:09;6.90;;;2.67;;
359;SDS011;168;48.872;9.226;2024-01-06T02:30:37;5.40;;;2.43;;
359;SDS011;168;48.872;9.226;2024-01-06T02:33:04;4.83;;;2.30;;
359;SDS011;168;48.872;9.226;2024-01-06T02:35:31;6.53;;;2.60;;
359;SDS011;168;48.872;9.226;2024-01-06T02:37:59;6.80;;;3.00;;
359;SDS011;168;48.872;9.226;2024-01-06T02:40:27;4.27;;;2.50;;
359;SDS011;168;48.872;9.226;2024-01-06T02:42:55;3.27;;;2.00;;
359;SDS011;168;48.872;9.226;2024-01-06T02:45:22;7.07;;;2.13;;
359;SDS011;168;48.872;9.226;2024-01-06T02:47:49;4.50;;;2.40;;
359;SDS011;168;48.872;9.226;2024-01-06T02:50:17;4.20;;;2.00;;
359;SDS011;168;48.872;9.226;2024-01-06T02:52:44;2.60;;;2.00;;
359;SDS011;168;48.872;9.226;2024-01-06T02:55:12;3.70;;;1.80;;
359;SDS011;168;48.872;9.226;2024-01-06T02:57:40;3.33;;;2.10;;
359;SDS011;168;48.872;9.226;2024-01-06T03:00:08;3.53;;;2.00;;
359;SDS011;168;48.872;9.226;2024-01-06T03:02:36;4.97;;;1.90;;
359;SDS011;168;48.872;9.226;2024-01-06T03:05:05;5.50;;;2.10;;
359;SDS011;168;48.872;9.226;2024-01-06T03:07:34;4.67;;;2.40;;
359;SDS011;168;48.872;9.226;2024-01-06T03:10:02;8.37;;;2.93;;
359;SDS011;168;48.872;9.226;2024-01-06T03:12:29;6.70;;;2.00;;
359;SDS011;168;48.872;9.226;2024-01-06T03:15:00;5.60;;;2.53;;
359;SDS011;168;48.872;9.226;2024-01-06T03:17:27;4.27;;;2.60;;
359;SDS011;168;48.872;9.226;2024-01-06T03:19:56;6.67;;;2.60;;
359;SDS011;168;48.872;9.226;2024-01-06T03:22:23;4.97;;;2.53;;
359;SDS011;168;48.872;9.226;2024-01-06T03:24:51;5.33;;;3.07;;
359;SDS011;168;48.872;9.226;2024-01-06T03:27:18;4.83;;;2.60;;
359;SDS011;168;48.872;9.226;2024-01-06T03:29:45;4.50;;;2.70;;
359;SDS011;168;48.872;9.226;2024-01-06T03:32:14;5.97;;;2.60;;
359;SDS011;168;48.872;9.226;2024-01-06T03:34:41;5.17;;;2.63;;
359;SDS011;168;48.872;9.226;2024-01-06T03:37:09;9.67;;;3.57;;
359;SDS011;168;48.872;9.226;2024-01-06T03:39:36;5.73;;;2.50;;
359;SDS011;168;48.872;9.226;2024-01-06T03:42:04;6.13;;;2.87;;
359;SDS011;168;48.872;9.226;2024-01-06T03:44:31;5.50;;;2.37;;
359;SDS011;168;48.872;9.226;2024-01-06T03:46:59;4.87;;;3.13;;
359;SDS011;168;48.872;9.226;2024-01-06T03:49:28;3.80;;;2.23;;
359;SDS011;168;48.872;9.226;2024-01-06T03:51:55;4.07;;;2.53;;
359;SDS011;168;48.872;9.226;2024-01-06T03:54:22;4.57;;;1.97;;
359;SDS011;168;48.872;9.226;2024-01-06T03:56:49;3.40;;;2.00;;
359;SDS011;168;48.872;9.226;2024-01-06T03:59:17;6.20;;;1.87;;
359;SDS011;168;48.872;9.226;2024-01-06T04:01:44;3.70;;;1.93;;
359;SDS011;168;48.872;9.226;2024-01-06T04:04:12;5.57;;;1.97;;
359;SDS011;168;48.872;9.226;2024-01-06T04:06:41;3.10;;;1.70;;
359;SDS011;168;48.872;9.226;2024-01-06T04:09:09;4.70;;;2.37;;
359;SDS011;168;48.872;9.226;2024-01-06T04:11:36;4.20;;;1.87;;
359;SDS011;168;48.872;9.226;2024-01-06T04:14:03;3.73;;;2.00;;
359;SDS011;168;48.872;9.226;2024-01-06T04:16:31;5.73;;;2.20;;
359;SDS011;168;48.872;9.226;2024-01-06T04:18:58;5.63;;;2.30;;
359;SDS011;168;48.872;9.226;2024-01-06T04:21:25;4.43;;;2.33;;
359;SDS011;168;48.872;9.226;2024-01-06T04:23:54;3.93;;;1.87;;
359;SDS011;168;48.872;9.226;2024-01-06T04:26:22;6.70;;;2.37;;
359;SDS011;168;48.872;9.226;2024-01-06T04:28:49;6.57;;;2.13;;
359;SDS011;168;48.872;9.226;2024-01-06T04:31:17;3.27;;;1.57;;
359;SDS011;168;48.872;9.226;2024-01-06T04:33:44;5.63;;;2.10;;
359;SDS011;168;48.872;9.226;2024-01-06T04:36:12;5.60;;;2.10;;
359;SDS011;168;48.872;9.226;2024-01-06T04:38:40;7.67;;;2.60;;
359;SDS011;168;48.872;9.226;2024-01-06T04:41:08;3.40;;;2.37;;
359;SDS011;168;48.872;9.226;2024-01-06T04:43:36;3.70;;;1.87;;
359;SDS011;168;48.872;9.226;2024-01-06T04:46:03;3.43;;;1.67;;
359;SDS011;168;48.872;9.226;2024-01-06T04:48:31;4.53;;;2.13;;
359;SDS011;168;48.872;9.226;2024-01-06T04:50:58;5.83;;;1.77;;
359;SDS011;168;48.872;9.226;2024-01-06T04:53:28;5.10;;;2.13;;
359;SDS011;168;48.872;9.226;2024-01-06T04:55:56;4.03;;;2.17;;
359;SDS011;168;48.872;9.226;2024-01-06T04:58:25;3.20;;;1.90;;
359;SDS011;168;48.872;9.226;2024-01-06T05:00:52;2.83;;;1.83;;
359;SDS011;168;48.872;9.226;2024-01-06T05:03:20;5.00;;;2.40;;
359;SDS011;168;48.872;9.226;2024-01-06T05:05:47;5.20;;;2.00;;
359;SDS011;168;48.872;9.226;2024-01-06T05:08:15;6.53;;;2.20;;
359;SDS011;168;48.872;9.226;2024-01-06T05:10:44;5.83;;;2.30;;
359;SDS011;168;48.872;9.226;2024-01-06T05:13:12;6.20;;;2.50;;
359;SDS011;168;48.872;9.226;2024-01-06T05:15:41;5.70;;;2.37;;
359;SDS011;168;48.872;9.226;2024-01-06T05:18:08;6.07;;;2.23;;
359;SDS011;168;48.872;9.226;2024-01-06T05:20:36;6.20;;;2.40;;
359;SDS011;168;48.872;9.226;2024-01-06T05:23:03;6.17;;;2.43;;
359;SDS011;168;48.872;9.226;2024-01-06T05:25:31;4.10;;;2.13;;
359;SDS011;168;48.872;9.226;2024-01-06T05:27:58;7.10;;;3.20;;
359;SDS011;168;48.872;9.226;2024-01-06T05:30:25;7.00;;;2.37;;
359;SDS011;168;48.872;9.226;2024-01-06T05:32:54;6.13;;;2.90;;
359;SDS011;168;48.872;9.226;2024-01-06T05:35:22;4.00;;;2.10;;
359;SDS011;168;48.872;9.226;2024-01-06T05:37:49;10.00;;;2.70;;
359;SDS011;168;48.872;9.226;2024-01-06T05:40:17;3.97;;;2.43;;
359;SDS011;168;48.872;9.226;2024-01-06T05:42:44;4.63;;;2.63;;
359;SDS011;168;48.872;9.226;2024-01-06T05:45:11;4.30;;;2.30;;
359;SDS011;168;48.872;9.226;2024-01-06T05:47:39;6.53;;;3.10;;
359;SDS011;168;48.872;9.226;2024-01-06T05:50:08;5.63;;;3.20;;
359;SDS011;168;48.872;9.226;2024-01-06T05:52:36;3.00;;;2.10;;
359;SDS011;168;48.872;9.226;2024-01-06T05:55:04;4.63;;;2.60;;
359;SDS011;168;48.872;9.226;2024-01-06T05:57:32;5.87;;;3.07;;
359;SDS011;168;48.872;9.226;2024-01-06T05:59:59;5.53;;;2.80;;
359;SDS011;168;48.872;9.226;2024-01-06T06:02:26;4.70;;;2.53;;
359;SDS011;168;48.872;9.226;2024-01-06T06:04:54;4.20;;;2.47;;
359;SDS011;168;48.872;9.226;2024-01-06T06:07:22;4.80;;;2.77;;
359;SDS011;168;48.872;9.226;2024-01-06T06:09:50;3.70;;;2.93;;
359;SDS011;168;48.872;9.226;2024-01-06T06:12:18;5.03;;;2.80;;
359;SDS011;168;48.872;9.226;2024-01-06T06:14:46;7.00;;;2.73;;
359;SDS011;168;48.872;9.226;2024-01-06T06:17:13;4.20;;;2.57;;
359;SDS011;168;48.872;9.226;2024-01-06T06:19:40;4.47;;;2.93;;
359;SDS011;168;48.872;9.226;2024-01-06T06:22:08;7.00;;;3.80;;
359;SDS011;168;48.872;9.226;2024-01-06T06:24:36;5.40;;;3.63;;
359;SDS011;168;48.872;9.226;2024-01-06T06:27:04;8.43;;;4.53;;
359;SDS011;168;48.872;9.226;2024-01-06T06:29:31;7.33;;;3.87;;
359;SDS011;168;48.872;9.226;2024-01-06T06:31:59;6.63;;;4.20;;
359;SDS011;168;48.872;9.226;2024-01-06T06:34:26;6.30;;;3.70;;
359;SDS011;168;48.872;9.226;2024-01-06T06:36:53;5.23;;;3.60;;
359;SDS011;168;48.872;9.226;2024-01-06T06:39:21;4.40;;;3.83;;
359;SDS011;168;48.872;9.226;2024-01-06T06:41:49;4.40;;;3.13;;
359;SDS011;168;48.872;9.226;2024-01-06T06:44:17;5.50;;;3.30;;
359;SDS011;168;48.872;9.226;2024-01-06T06:46:44;8.50;;;4.13;;
359;SDS011;168;48.872;9.226;2024-01-06T06:49:11;5.00;;;3.47;;
359;SDS011;168;48.872;9.226;2024-01-06T06:51:39;5.83;;;4.00;;
359;SDS011;168;48.872;9.226;2024-01-06T06:54:12;8.87;;;4.10;;
359;SDS011;168;48.872;9.226;2024-01-06T06:56:40;4.80;;;4.10;;
359;SDS011;168;48.872;9.226;2024-01-06T06:59:09;5.93;;;4.20;;
359;SDS011;168;48.872;9.226;2024-01-06T07:01:36;5.00;;;4.10;;
359;SDS011;168;48.872;9.226;2024-01-06T07:04:04;6.13;;;3.77;;
359;SDS011;168;48.872;9.226;2024-01-06T07:06:31;5.07;;;3.40;;
359;SDS011;168;48.872;9.226;2024-01-06T07:08:59;4.40;;;3.40;;
359;SDS011;168;48.872;9.226;2024-01-06T07:11:28;5.30;;;4.43;;
359;SDS011;168;48.872;9.226;2024-01-06T07:13:56;5.10;;;4.40;;
359;SDS011;168;48.872;9.226;2024-01-06T07:16:27;5.17;;;3.60;;
359;SDS011;168;48.872;9.226;2024-01-06T07:18:57;4.23;;;3.50;;
359;SDS011;168;48.872;9.226;2024-01-06T07:21:25;4.80;;;3.57;;
359;SDS011;168;48.872;9.226;2024-01-06T07:23:52;5.43;;;3.10;;
359;SDS011;168;48.872;9.226;2024-01-06T07:26:20;4.47;;;3.40;;
359;SDS011;168;48.872;9.226;2024-01-06T07:28:47;5.87;;;3.13;;
359;SDS011;168;48.872;9.226;2024-01-06T07:31:14;4.67;;;3.20;;
359;SDS011;168;48.872;9.226;2024-01-06T07:33:44;3.10;;;2.80;;
359;SDS011;168;48.872;9.226;2024-01-06T07:36:12;4.27;;;2.60;;
359;SDS011;168;48.872;9.226;2024-01-06T07:38:39;3.50;;;2.70;;
359;SDS011;168;48.872;9.226;2024-01-06T07:41:06;3.63;;;2.90;;
359;SDS011;168;48.872;9.226;2024-01-06T07:43:35;5.53;;;3.47;;
359;SDS011;168;48.872;9.226;2024-01-06T07:46:02;3.33;;;3.03;;
359;SDS011;168;48.872;9.226;2024-01-06T07:48:32;3.70;;;3.30;;
359;SDS011;168;48.872;9.226;2024-01-06T07:51:01;4.07;;;3.00;;
359;SDS011;168;48.872;9.226;2024-01-06T07:53:29;3.50;;;3.03;;
359;SDS011;168;48.872;9.226;2024-01-06T07:55:56;3.60;;;2.80;;
359;SDS011;168;48.872;9.226;2024-01-06T07:58:24;3.97;;;3.20;;
359;SDS011;168;48.872;9.226;2024-01-06T08:00:51;3.70;;;2.93;;
359;SDS011;168;48.872;9.226;2024-01-06T08:03:18;3.40;;;2.60;;
359;SDS011;168;48.872;9.226;2024-01-06T08:05:46;4.67;;;2.77;;
359;SDS011;168;48.872;9.226;2024-01-06T08:08:15;4.20;;;3.40;;
359;SDS011;168;48.872;9.226;2024-01-06T08:10:44;3.93;;;3.30;;
359;SDS011;168;48.872;9.226;2024-01-06T08:13:11;3.33;;;3.00;;
359;SDS011;168;48.872;9.226;2024-01-06T08:15:39;3.70;;;3.10;;
359;SDS011;168;48.872;9.226;2024-01-06T08:18:06;4.50;;;3.00;;
359;SDS011;168;48.872;9.226;2024-01-06T08:20:33;5.80;;;3.83;;
359;SDS011;168;48.872;9.226;2024-01-06T08:23:00;3.23;;;2.80;;
359;SDS011;168;48.872;9.226;2024-01-06T08:25:29;4.63;;;3.43;;
359;SDS011;168;48.872;9.226;2024-01-06T08:27:57;4.40;;;3.40;;
359;SDS011;168;48.872;9.226;2024-01-06T08:30:24;4.10;;;3.50;;
359;SDS011;168;48.872;9.226;2024-01-06T08:32:51;4.00;;;3.40;;
359;SDS011;168;48.872;9.226;2024-01-06T08:35:19;4.33;;;3.67;;
359;SDS011;168;48.872;9.226;2024-01-06T08:37:46;3.20;;;2.90;;
359;SDS011;168;48.872;9.226;2024-01-06T08:40:13;4.53;;;3.63;;
359;SDS011;168;48.872;9.226;2024-01-06T08:42:42;4.20;;;3.57;;
359;SDS011;168;48.872;9.226;2024-01-06T08:45:10;4.73;;;3.70;;
359;SDS011;168;48.872;9.226;2024-01-06T08:47:37;4.90;;;3.70;;
359;SDS011;168;48.872;9.226;2024-01-06T08:50:05;5.33;;;3.70;;
359;SDS011;168;48.872;9.226;2024-01-06T08:52:33;4.40;;;4.00;;
359;SDS011;168;48.872;9.226;2024-01-06T08:55:01;3.40;;;2.87;;
359;SDS011;168;48.872;9.226;2024-01-06T08:57:28;3.70;;;3.00;;
359;SDS011;168;48.872;9.226;2024-01-06T08:59:57;7.30;;;2.90;;
359;SDS011;168;48.872;9.226;2024-01-06T09:02:24;4.07;;;3.40;;
359;SDS011;168;48.872;9.226;2024-01-06T09:04:52;5.03;;;3.67;;
359;SDS011;168;48.872;9.226;2024-01-06T09:07:22;4.70;;;3.63;;
359;SDS011;168;48.872;9.226;2024-01-06T09:09:49;4.00;;;3.07;;
359;SDS011;168;48.872;9.226;2024-01-06T09:12:17;5.30;;;3.90;;
359;SDS011;168;48.872;9.226;2024-01-06T09:14:51;4.70;;;3.97;;
359;SDS011;168;48.872;9.226;2024-01-06T09:17:34;4.27;;;3.83;;
359;SDS011;168;48.872;9.226;2024-01-06T09:20:02;5.40;;;3.67;;
359;SDS011;168;48.872;9.226;2024-01-06T09:22:29;4.73;;;4.23;;
359;SDS011;168;48.872;9.226;2024-01-06T09:24:57;5.00;;;3.90;;
359;SDS011;168;48.872;9.226;2024-01-06T09:27:28;4.30;;;3.90;;
359;SDS011;168;48.872;9.226;2024-01-06T09:29:55;4.67;;;3.87;;
359;SDS011;168;48.872;9.226;2024-01-06T09:32:24;3.70;;;3.40;;
359;SDS011;168;48.872;9.226;2024-01-06T09:34:54;5.80;;;4.60;;
359;SDS011;168;48.872;9.226;2024-01-06T09:37:21;5.37;;;3.80;;
359;SDS011;168;48.872;9.226;2024-01-06T09:39:49;4.40;;;4.00;;
359;SDS011;168;48.872;9.226;2024-01-06T09:42:17;4.70;;;4.10;;
359;SDS011;168;48.872;9.226;2024-01-06T09:44:45;6.30;;;4.20;;
359;SDS011;168;48.872;9.226;2024-01-06T09:47:13;4.73;;;3.87;;
359;SDS011;168;48.872;9.226;2024-01-06T09:49:43;3.97;;;3.57;;
359;SDS011;168;48.872;9.226;2024-01-06T09:52:19;5.27;;;4.83;;
359;SDS011;168;48.872;9.226;2024-01-06T09:54:50;4.87;;;3.93;;
359;SDS011;168;48.872;9.226;2024-01-06T09:57:19;4.70;;;3.80;;
359;SDS011;168;48.872;9.226;2024-01-06T09:59:47;5.20;;;4.07;;
359;SDS011;168;48.872;9.226;2024-01-06T10:02:15;5.20;;;3.50;;
359;SDS011;168;48.872;9.226;2024-01-06T10:04:43;4.63;;;4.03;;
359;SDS011;168;48.872;9.226;2024-01-06T10:07:11;4.67;;;4.20;;
359;SDS011;168;48.872;9.226;2024-01-06T10:09:42;5.20;;;4.07;;
359;SDS011;168;48.872;9.226;2024-01-06T10:12:12;4.40;;;3.97;;
359;SDS011;168;48.872;9.226;2024-01-06T10:14:39;5.70;;;4.70;;
359;SDS011;168;48.872;9.226;2024-01-06T10:17:07;3.83;;;3.23;;
359;SDS011;168;48.872;9.226;2024-01-06T10:19:34;4.40;;;4.00;;
359;SDS011;168;48.872;9.226;2024-01-06T10:22:03;4.20;;;3.77;;
359;SDS011;168;48.872;9.226;2024-01-06T10:24:32;4.47;;;3.80;;
359;SDS011;168;48.872;9.226;2024-01-06T10:27:01;5.40;;;3.60;;
359;SDS011;168;48.872;9.226;2024-01-06T10:29:28;4.00;;;3.60;;
359;SDS011;168;48.872;9.226;2024-01-06T10:31:56;4.70;;;3.93;;
359;SDS011;168;48.872;9.226;2024-01-06T10:34:25;4.77;;;3.50;;
359;SDS011;168;48.872;9.226;2024-01-06T10:39:24;4.93;;;3.87;;
359;SDS011;168;48.872;9.226;2024-01-06T10:41:56;7.53;;;4.43;;
359;SDS011;168;48.872;9.226;2024-01-06T10:44:28;4.53;;;4.00;;
359;SDS011;168;48.872;9.226;2024-01-06T10:46:58;4.13;;;3.50;;
359;SDS011;168;48.872;9.226;2024-01-06T10:49:27;5.07;;;3.60;;
359;SDS011;168;48.872;9.226;2024-01-06T10:51:56;4.00;;;3.60;;
359;SDS011;168;48.872;9.226;2024-01-06T10:54:26;4.70;;;3.60;;
359;SDS011;168;48.872;9.226;2024-01-06T10:56:54;4.20;;;3.80;;
359;SDS011;168;48.872;9.226;2024-01-06T10:59:24;4.87;;;4.20;;
359;SDS011;168;48.872;9.226;2024-01-06T11:01:54;4.43;;;4.03;;
359;SDS011;168;48.872;9.226;2024-01-06T11:04:22;4.50;;;4.10;;
359;SDS011;168;48.872;9.226;2024-01-06T11:06:50;6.57;;;4.87;;
359;SDS011;168;48.872;9.226;2024-01-06T11:09:19;5.67;;;4.57;;
359;SDS011;168;48.872;9.226;2024-01-06T11:11:51;5.53;;;4.37;;
359;SDS011;168;48.872;9.226;2024-01-06T11:14:20;8.73;;;4.60;;
359;SDS011;168;48.872;9.226;2024-01-06T11:16:49;5.37;;;4.87;;
359;SDS011;168;48.872;9.226;2024-01-06T11:22:19;5.67;;;4.97;;
359;SDS011;168;48.872;9.226;2024-01-06T11:24:48;6.70;;;5.00;;
359;SDS011;168;48.872;9.226;2024-01-06T11:27:20;6.20;;;5.63;;
359;SDS011;168;48.872;9.226;2024-01-06T11:29:50;5.30;;;4.67;;
359;SDS011;168;48.872;9.226;2024-01-06T11:32:20;6.37;;;5.30;;
359;SDS011;168;48.872;9.226;2024-01-06T11:34:54;5.40;;;4.90;;
359;SDS011;168;48.872;9.226;2024-01-06T11:37:24;6.20;;;5.47;;
359;SDS011;168;48.872;9.226;2024-01-06T11:40:02;6.80;;;6.10;;
359;SDS011;168;48.872;9.226;2024-01-06T11:42:33;6.00;;;5.40;;
359;SDS011;168;48.872;9.226;2024-01-06T11:45:01;7.37;;;5.90;;
359;SDS011;168;48.872;9.226;2024-01-06T11:47:31;6.47;;;5.80;;
359;SDS011;168;48.872;9.226;2024-01-06T11:50:00;7.67;;;5.80;;
359;SDS011;168;48.872;9.226;2024-01-06T11:52:30;7.63;;;6.50;;
359;SDS011;168;48.872;9.226;2024-01-06T11:54:57;7.43;;;5.87;;
359;SDS011;168;48.872;9.226;2024-01-06T11:57:25;7.37;;;5.50;;
359;SDS011;168;48.872;9.226;2024-01-06T11:59:53;7.70;;;6.40;;
359;SDS011;168;48.872;9.226;2024-01-06T12:02:20;7.13;;;6.43;;
359;SDS011;168;48.872;9.226;2024-01-06T12:04:49;6.00;;;5.40;;
359;SDS011;168;48.872;9.226;2024-01-06T12:07:18;6.63;;;5.63;;
359;SDS011;168;48.872;9.226;2024-01-06T12:09:47;6.40;;;5.80;;
359;SDS011;168;48.872;9.226;2024-01-06T12:12:15;6.47;;;5.77;;
359;SDS011;168;48.872;9.226;2024-01-06T12:14:43;5.60;;;4.80;;
359;SDS011;168;48.872;9.226;2024-01-06T12:17:12;6.37;;;5.77;;
359;SDS011;168;48.872;9.226;2024-01-06T12:19:40;7.10;;;5.17;;
359;SDS011;168;48.872;9.226;2024-01-06T12:22:09;6.50;;;5.30;;
359;SDS011;168;48.872;9.226;2024-01-06T12:24:40;7.47;;;5.63;;
359;SDS011;168;48.872;9.226;2024-01-06T12:27:08;5.80;;;5.20;;
359;SDS011;168;48.872;9.226;2024-01-06T12:29:37;6.80;;;6.20;;
359;SDS011;168;48.872;9.226;2024-01-06T12:32:05;7.93;;;6.27;;
359;SDS011;168;48.872;9.226;2024-01-06T12:34:33;5.97;;;5.37;;
359;SDS011;168;48.872;9.226;2024-01-06T12:37:01;7.20;;;6.47;;
359;SDS011;168;48.872;9.226;2024-01-06T12:39:29;5.77;;;5.17;;
359;SDS011;168;48.872;9.226;2024-01-06T12:42:00;7.27;;;6.30;;
359;SDS011;168;48.872;9.226;2024-01-06T12:44:28;6.00;;;5.37;;
359;SDS011;168;48.872;9.226;2024-01-06T12:46:58;6.00;;;5.40;;
359;SDS011;168;48.872;9.226;2024-01-06T12:49:25;6.60;;;5.70;;
359;SDS011;168;48.872;9.226;2024-01-06T12:51:53;7.73;;;6.30;;
359;SDS011;168;48.872;9.226;2024-01-06T12:54:20;6.67;;;5.97;;
359;SDS011;168;48.872;9.226;2024-01-06T12:56:47;7.10;;;5.73;;
359;SDS011;168;48.872;9.226;2024-01-06T12:59:16;8.17;;;6.60;;
359;SDS011;168;48.872;9.226;2024-01-06T13:01:44;7.93;;;7.17;;
359;SDS011;168;48.872;9.226;2024-01-06T13:04:11;7.67;;;6.87;;
359;SDS011;168;48.872;9.226;2024-01-06T13:06:39;7.70;;;6.90;;
359;SDS011;168;48.872;9.226;2024-01-06T13:09:07;10.33;;;7.50;;
359;SDS011;168;48.872;9.226;2024-01-06T13:11:38;10.00;;;8.77;;
359;SDS011;168;48.872;9.226;2024-01-06T13:14:05;8.40;;;7.30;;
359;SDS011;168;48.872;9.226;2024-01-06T13:16:34;15.17;;;8.27;;
359;SDS011;168;48.872;9.226;2024-01-06T13:19:02;8.03;;;7.23;;
359;SDS011;168;48.872;9.226;2024-01-06T13:21:30;8.10;;;7.30;;
359;SDS011;168;48.872;9.226;2024-01-06T13:23:57;8.90;;;7.10;;
359;SDS011;168;48.872;9.226;2024-01-06T13:26:27;8.23;;;7.07;;
359;SDS011;168;48.872;9.226;2024-01-06T13:28:55;8.00;;;7.10;;
359;SDS011;168;48.872;9.226;2024-01-06T13:31:26;10.10;;;7.87;;
359;SDS011;168;48.872;9.226;2024-01-06T13:33:55;8.77;;;7.87;;
359;SDS011;168;48.872;9.226;2024-01-06T13:36:23;8.33;;;6.67;;
359;SDS011;168;48.872;9.226;2024-01-06T13:38:50;9.53;;;8.30;;
359;SDS011;168;48.872;9.226;2024-01-06T13:41:18;10.83;;;9.27;;
359;SDS011;168;48.872;9.226;2024-01-06T13:43:45;10.00;;;9.00;;
359;SDS011;168;48.872;9.226;2024-01-06T13:46:13;10.13;;;8.90;;
359;SDS011;168;48.872;9.226;2024-01-06T13:48:40;10.73;;;9.43;;
359;SDS011;168;48.872;9.226;2024-01-06T13:51:09;9.80;;;8.80;;
359;SDS011;168;48.872;9.226;2024-01-06T13:53:36;10.90;;;8.53;;
359;SDS011;168;48.872;9.226;2024-01-06T13:56:04;9.57;;;8.43;;
359;SDS011;168;48.872;9.226;2024-01-06T13:58:32;10.30;;;9.20;;
359;SDS011;168;48.872;9.226;2024-01-06T14:01:01;13.20;;;8.53;;
359;SDS011;168;48.872;9.226;2024-01-06T14:03:28;11.80;;;9.03;;
359;SDS011;168;48.872;9.226;2024-01-06T14:05:56;10.67;;;8.57;;
359;SDS011;168;48.872;9.226;2024-01-06T14:08:24;11.40;;;9.40;;
359;SDS011;168;48.872;9.226;2024-01-06T14:10:52;10.40;;;9.10;;
359;SDS011;168;48.872;9.226;2024-01-06T14:13:19;10.53;;;8.90;;
359;SDS011;168;48.872;9.226;2024-01-06T14:15:46;13.43;;;8.70;;
359;SDS011;168;48.872;9.226;2024-01-06T14:18:14;9.37;;;7.93;;
359;SDS011;168;48.872;9.226;2024-01-06T14:20:42;12.90;;;9.40;;
359;SDS011;168;48.872;9.226;2024-01-06T14:23:09;10.07;;;8.23;;
359;SDS011;168;48.872;9.226;2024-01-06T14:25:38;9.80;;;8.30;;
359;SDS011;168;48.872;9.226;2024-01-06T14:28:05;10.03;;;8.47;;
359;SDS011;168;48.872;9.226;2024-01-06T14:30:33;10.57;;;9.13;;
359;SDS011;168;48.872;9.226;2024-01-06T14:33:00;8.87;;;7.97;;
359;SDS011;168;48.872;9.226;2024-01-06T14:35:27;12.83;;;9.43;;
359;SDS011;168;48.872;9.226;2024-01-06T14:37:55;13.93;;;9.47;;
359;SDS011;168;48.872;9.226;2024-01-06T14:40:22;13.47;;;9.17;;
359;SDS011;168;48.872;9.226;2024-01-06T14:42:51;9.70;;;8.57;;
359;SDS011;168;48.872;9.226;2024-01-06T14:45:19;10.77;;;8.93;;
359;SDS011;168;48.872;9.226;2024-01-06T14:47:47;10.37;;;9.30;;
359;SDS011;168;48.872;9.226;2024-01-06T14:50:16;11.30;;;9.07;;
359;SDS011;168;48.872;9.226;2024-01-06T14:52:44;10.97;;;9.10;;
359;SDS011;168;48.872;9.226;2024-01-06T14:55:11;10.13;;;8.70;;
359;SDS011;168;48.872;9.226;2024-01-06T14:57:38;9.83;;;8.33;;
359;SDS011;168;48.872;9.226;2024-01-06T15:00:08;10.37;;;8.73;;
359;SDS011;168;48.872;9.226;2024-01-06T15:02:36;11.60;;;8.70;;
359;SDS011;168;48.872;9.226;2024-01-06T15:05:03;11.70;;;9.17;;
359;SDS011;168;48.872;9.226;2024-01-06T15:07:32;9.50;;;8.60;;
359;SDS011;168;48.872;9.226;2024-01-06T15:09:59;9.90;;;8.90;;
359;SDS011;168;48.872;9.226;2024-01-06T15:12:26;10.80;;;9.70;;
359;SDS011;168;48.872;9.226;2024-01-06T15:14:53;10.00;;;9.00;;
359;SDS011;168;48.872;9.226;2024-01-06T15:17:22;10.57;;;9.57;;
359;SDS011;168;48.872;9.226;2024-01-06T15:19:49;11.33;;;10.13;;
359;SDS011;168;48.872;9.226;2024-01-06T15:22:17;12.03;;;10.23;;
359;SDS011;168;48.872;9.226;2024-01-06T15:24:44;11.03;;;9.90;;
359;SDS011;168;48.872;9.226;2024-01-06T15:27:12;11.10;;;9.87;;
359;SDS011;168;48.872;9.226;2024-01-06T15:29:40;9.97;;;8.90;;
359;SDS011;168;48.872;9.226;2024-01-06T15:32:08;11.67;;;9.63;;
359;SDS011;168;48.872;9.226;2024-01-06T15:34:36;10.90;;;9.50;;
359;SDS011;168;48.872;9.226;2024-01-06T15:37:04;11.30;;;9.83;;
359;SDS011;168;48.872;9.226;2024-01-06T15:39:31;11.80;;;10.50;;
359;SDS011;168;48.872;9.226;2024-01-06T15:41:58;11.03;;;9.60;;
359;SDS011;168;48.872;9.226;2024-01-06T15:44:26;13.60;;;11.20;;
359;SDS011;168;48.872;9.226;2024-01-06T15:46:53;12.50;;;9.60;;
359;SDS011;168;48.872;9.226;2024-01-06T15:49:20;11.87;;;10.00;;
359;SDS011;168;48.872;9.226;2024-01-06T15:51:49;13.23;;;11.10;;